Time;durP1;ratioP1;P1;durP2;ratioP2;P2;SDS_P1;SDS_P2;PMS_P1;PMS_P2;Temp;Humidity;BMP_temperature;BMP_pressure;BME280_temperature;BME280_humidity;BME280_pressure;Samples;Min_cycle;Max_cycle;Signal;HPM_P1;HPM_P2
2022/12/27 00:01:12;;;;;;;40.47;23.93;;;;;;;4.58;100.00;100252.31;5089168;28;20202;-51
2022/12/27 00:03:40;;;;;;;39.57;23.17;;;;;;;4.57;100.00;100254.88;5089187;28;20230;-50
2022/12/27 00:06:08;;;;;;;39.17;22.87;;;;;;;4.54;100.00;100248.00;5088955;28;20207;-51
2022/12/27 00:08:35;;;;;;;40.23;22.93;;;;;;;4.51;100.00;100255.69;5089173;28;20191;-52
2022/12/27 00:11:06;;;;;;;37.07;22.57;;;;;;;4.43;100.00;100244.47;5088822;28;20199;-50
2022/12/27 00:13:33;;;;;;;43.40;23.87;;;;;;;4.49;100.00;100243.69;5088911;28;20279;-51
2022/12/27 00:16:05;;;;;;;40.80;24.30;;;;;;;4.44;100.00;100242.78;5089107;28;20697;-51
2022/12/27 00:18:32;;;;;;;40.07;24.20;;;;;;;4.33;100.00;100243.56;5088831;28;20196;-51
2022/12/27 00:21:00;;;;;;;41.73;24.50;;;;;;;4.27;100.00;100237.53;5088967;28;20228;-52
2022/12/27 00:23:27;;;;;;;45.90;24.07;;;;;;;4.23;100.00;100251.19;5088992;28;20219;-50
2022/12/27 00:26:00;;;;;;;41.27;24.87;;;;;;;4.14;100.00;100251.97;5089163;28;20212;-52
2022/12/27 00:28:30;;;;;;;41.10;24.67;;;;;;;4.08;100.00;100240.75;5088783;28;20583;-61
2022/12/27 00:30:57;;;;;;;40.53;24.37;;;;;;;4.08;100.00;100239.06;5088731;28;20207;-62
2022/12/27 00:33:25;;;;;;;43.50;24.43;;;;;;;4.14;100.00;100226.28;5088701;28;20283;-61
2022/12/27 00:35:52;;;;;;;39.13;23.77;;;;;;;4.09;100.00;100230.50;5088669;28;20253;-62
2022/12/27 00:38:19;;;;;;;42.40;23.97;;;;;;;4.20;100.00;100235.72;5088827;28;20204;-60
2022/12/27 00:40:46;;;;;;;42.40;23.80;;;;;;;4.15;100.00;100225.44;5088408;28;20220;-61
2022/12/27 00:43:13;;;;;;;37.57;22.40;;;;;;;4.13;100.00;100221.97;5088781;28;20215;-60
2022/12/27 00:45:40;;;;;;;32.73;20.27;;;;;;;4.15;100.00;100217.72;5088467;28;20195;-61
2022/12/27 00:48:07;;;;;;;34.57;20.23;;;;;;;4.18;100.00;100212.59;5090799;28;20196;-61
2022/12/27 00:50:35;;;;;;;36.37;20.93;;;;;;;4.27;100.00;100210.13;5091996;28;20195;-61
2022/12/27 00:53:02;;;;;;;31.77;19.87;;;;;;;4.30;100.00;100207.53;5092149;28;20201;-62
2022/12/27 00:55:29;;;;;;;35.97;21.27;;;;;;;4.16;100.00;100208.31;5092355;28;20203;-61
2022/12/27 00:57:56;;;;;;;40.47;20.80;;;;;;;4.11;100.00;100203.13;5092065;28;20191;-62
2022/12/27 01:00:23;;;;;;;35.87;20.90;;;;;;;4.11;100.00;100203.13;5092165;28;20586;-61
2022/12/27 01:02:50;;;;;;;36.47;20.87;;;;;;;4.14;100.00;100199.72;5091790;28;20199;-61
2022/12/27 01:05:17;;;;;;;36.07;20.97;;;;;;;4.18;100.00;100202.31;5092257;28;20200;-61
2022/12/27 01:07:45;;;;;;;37.20;21.43;;;;;;;4.20;100.00;100205.75;5092088;28;20198;-60
2022/12/27 01:10:12;;;;;;;39.83;21.37;;;;;;;4.23;100.00;100198.09;5092110;28;20202;-50
2022/12/27 01:12:39;;;;;;;36.27;21.13;;;;;;;4.26;100.00;100216.09;5091754;28;20205;-51
2022/12/27 01:15:08;;;;;;;35.27;21.27;;;;;;;4.16;100.00;100224.59;5091684;28;20697;-52
2022/12/27 01:17:35;;;;;;;34.67;20.27;;;;;;;4.18;100.00;100216.88;5092027;28;20197;-50
2022/12/27 01:20:02;;;;;;;35.40;21.17;;;;;;;4.17;100.00;100220.31;5091831;28;20202;-51
2022/12/27 01:22:29;;;;;;;35.60;21.67;;;;;;;4.18;100.00;100211.72;5091759;28;20297;-50
2022/12/27 01:24:58;;;;;;;38.93;21.03;;;;;;;4.10;100.00;100196.25;5091342;28;20226;-50
2022/12/27 01:27:24;;;;;;;30.70;19.50;;;;;;;4.02;100.00;100195.34;5091611;28;20670;-50
2022/12/27 01:29:51;;;;;;;37.03;21.83;;;;;;;4.17;100.00;100194.63;5091795;28;20217;-51
2022/12/27 01:32:18;;;;;;;31.90;20.50;;;;;;;4.08;100.00;100191.94;5091711;28;20205;-50
2022/12/27 01:34:45;;;;;;;37.37;21.10;;;;;;;3.99;100.00;100185.91;5091488;28;20201;-52
2022/12/27 01:37:12;;;;;;;36.90;21.37;;;;;;;4.05;100.00;100190.25;5091507;28;20203;-51
2022/12/27 01:39:39;;;;;;;33.27;20.93;;;;;;;4.06;100.00;100186.81;5091081;28;20219;-51
2022/12/27 01:45:01;;;;;;;34.47;20.90;;;;;;;4.06;100.00;100181.69;5091013;28;20222;-52
2022/12/27 01:47:37;;;;;;;38.70;21.23;;;;;;;4.06;100.00;100189.41;5091487;28;20199;-50
2022/12/27 01:50:12;;;;;;;38.83;21.93;;;;;;;3.95;100.00;100165.34;5090756;28;20206;-51
2022/12/27 01:52:42;;;;;;;33.93;20.73;;;;;;;4.00;100.00;100181.63;5090391;28;20218;-60
2022/12/27 01:55:18;;;;;;;33.53;21.43;;;;;;;3.98;100.00;100180.75;5090782;28;20195;-60
2022/12/27 01:57:47;;;;;;;40.57;20.93;;;;;;;4.01;100.00;100186.78;5090782;28;20286;-61
2022/12/27 02:00:15;;;;;;;38.40;20.53;;;;;;;4.08;100.00;100177.41;5091059;28;20221;-60
2022/12/27 02:02:43;;;;;;;34.23;19.33;;;;;;;4.11;100.00;100164.59;5090640;28;20207;-60
2022/12/27 02:05:11;;;;;;;31.17;19.20;;;;;;;4.09;100.00;100176.56;5090692;28;20218;-61
2022/12/27 02:07:47;;;;;;;32.50;19.50;;;;;;;4.13;100.00;100177.44;5090975;28;20623;-60
2022/12/27 02:10:15;;;;;;;35.20;20.33;;;;;;;4.08;100.00;100169.69;5090827;28;20207;-60
2022/12/27 02:12:42;;;;;;;31.57;20.03;;;;;;;4.11;100.00;100180.00;5090669;28;20195;-60
2022/12/27 02:15:10;;;;;;;32.23;19.10;;;;;;;4.11;100.00;100169.72;5090716;28;20198;-60
2022/12/27 02:17:37;;;;;;;37.03;20.70;;;;;;;4.02;100.00;100164.53;5090559;28;20199;-50
2022/12/27 02:20:10;;;;;;;40.27;20.40;;;;;;;4.06;100.00;100162.84;5090590;28;20195;-61
2022/12/27 02:26:23;;;;;;;31.23;19.80;;;;;;;3.90;100.00;100161.84;5090665;28;20687;-51
2022/12/27 02:29:07;;;;;;;31.77;19.07;;;;;;;3.94;100.00;100164.47;5090611;28;20286;-61
2022/12/27 02:31:41;;;;;;;39.90;19.70;;;;;;;3.93;100.00;100162.75;5090223;28;20199;-50
2022/12/27 02:34:14;;;;;;;38.23;20.47;;;;;;;3.94;100.00;100164.47;5090328;28;20190;-51
2022/12/27 02:36:44;;;;;;;40.77;20.50;;;;;;;3.83;100.00;100149.81;5090196;28;20203;-51
2022/12/27 02:39:14;;;;;;;33.23;19.53;;;;;;;3.85;100.00;100164.38;5090148;28;20223;-51
2022/12/27 02:53:06;;;;;;;38.23;20.83;;;;;;;3.96;100.00;100155.03;5089830;28;20332;-51
2022/12/27 02:59:04;;;;;;;33.73;20.63;;;;;;;3.97;100.00;100156.75;5089900;28;20202;-51
2022/12/27 03:04:50;;;;;;;39.73;20.90;;;;;;;3.90;100.00;100149.00;5050734;28;20223;-51
2022/12/27 03:07:31;;;;;;;33.60;20.30;;;;;;;3.93;100.00;100156.75;5089999;28;20208;-50
2022/12/27 03:15:58;;;;;;;39.90;21.23;;;;;;;3.74;100.00;100158.28;5089465;28;20218;-51
2022/12/27 03:18:49;;;;;;;36.10;22.67;;;;;;;3.81;100.00;100159.22;5089933;28;20587;-52
2022/12/27 03:26:52;;;;;;;36.87;21.57;;;;;;;3.39;100.00;100142.53;5089320;28;20681;-52
2022/12/27 03:35:04;;;;;;;40.17;21.83;;;;;;;3.44;100.00;100130.63;5089701;28;20198;-51
2022/12/27 03:40:29;;;;;;;35.00;21.20;;;;;;;3.46;100.00;100136.66;5089337;28;20275;-51
2022/12/27 03:43:10;;;;;;;37.87;22.13;;;;;;;3.43;100.00;100141.75;5089141;28;20201;-61
2022/12/27 03:48:37;;;;;;;34.73;21.20;;;;;;;3.36;100.00;100124.56;5089076;28;20221;-60
2022/12/27 03:51:07;;;;;;;35.90;21.70;;;;;;;3.27;100.00;100127.06;5089118;28;20227;-61
2022/12/27 03:53:39;;;;;;;37.40;21.33;;;;;;;3.33;100.00;100129.66;5088848;28;20195;-61
2022/12/27 03:56:07;;;;;;;35.87;22.17;;;;;;;3.33;100.00;100141.63;5089251;28;20204;-53
2022/12/27 03:58:34;;;;;;;39.80;21.10;;;;;;;3.35;100.00;100142.50;5089152;28;20285;-49
2022/12/27 04:01:02;;;;;;;33.37;19.80;;;;;;;3.40;100.00;100151.97;5089505;28;20202;-50
2022/12/27 04:03:28;;;;;;;36.67;21.10;;;;;;;3.33;100.00;100154.47;5089310;28;20202;-51
2022/12/27 04:05:55;;;;;;;36.27;20.77;;;;;;;3.24;100.00;100150.97;5088802;28;20627;-50
2022/12/27 04:35:49;;;;;;;27.50;16.37;;;;;;;3.03;100.00;100144.72;5092622;28;20257;-50
2022/12/27 04:38:16;;;;;;;31.37;16.43;;;;;;;3.05;100.00;100150.75;5092527;28;20202;-51
2022/12/27 04:57:18;;;;;;;27.33;16.57;;;;;;;2.87;100.00;100148.81;5081380;28;20237;-61
2022/12/27 05:02:35;;;;;;;32.13;17.07;;;;;;;3.03;100.00;100160.13;5069528;28;20266;-62
2022/12/27 05:05:02;;;;;;;23.73;16.07;;;;;;;2.98;100.00;100166.88;5081241;28;20217;-61
2022/12/27 05:15:43;;;;;;;29.20;15.63;;;;;;;3.00;100.00;100158.38;5089858;28;20194;-61
2022/12/27 05:18:10;;;;;;;25.10;15.13;;;;;;;3.03;100.00;100157.56;5091583;28;20199;-61
2022/12/27 05:20:37;;;;;;;25.00;15.40;;;;;;;3.08;100.00;100159.31;5088673;28;20195;-61
2022/12/27 05:25:48;;;;;;;23.50;15.20;;;;;;;3.08;100.00;100154.19;5091714;28;20224;-61
2022/12/27 05:28:17;;;;;;;27.53;15.97;;;;;;;3.10;100.00;100151.63;5091612;28;20217;-51
2022/12/27 05:30:44;;;;;;;25.10;15.77;;;;;;;3.11;100.00;100151.66;5091121;28;20278;-62
2022/12/27 05:33:11;;;;;;;21.67;15.10;;;;;;;3.05;100.00;100155.88;5088036;28;20195;-52
2022/12/27 05:35:38;;;;;;;22.63;15.70;;;;;;;3.08;100.00;100158.44;5090997;28;20191;-52
2022/12/27 05:38:06;;;;;;;28.37;16.23;;;;;;;3.03;100.00;100155.00;5091663;28;20206;-52
2022/12/27 05:40:33;;;;;;;25.83;15.97;;;;;;;3.06;100.00;100155.00;5091065;28;20223;-61
2022/12/27 05:43:01;;;;;;;25.73;15.47;;;;;;;3.04;100.00;100157.56;5091059;28;20240;-51
2022/12/27 05:45:30;;;;;;;27.03;15.60;;;;;;;2.84;100.00;100162.44;5090588;28;20601;-52
2022/12/27 05:47:58;;;;;;;24.27;16.57;;;;;;;2.93;100.00;100167.66;5090253;28;20200;-52
2022/12/27 05:50:25;;;;;;;28.13;16.23;;;;;;;2.91;100.00;100166.81;5090179;28;20191;-62
2022/12/27 05:52:52;;;;;;;24.03;15.30;;;;;;;2.92;100.00;100163.41;5090690;28;20669;-61
2022/12/27 05:55:19;;;;;;;30.00;18.40;;;;;;;2.98;100.00;100170.31;5090497;28;20214;-51
2022/12/27 05:57:46;;;;;;;32.47;19.70;;;;;;;3.09;100.00;100171.28;5090372;28;20202;-52
2022/12/27 06:00:14;;;;;;;33.57;18.83;;;;;;;3.05;100.00;100168.69;5090461;28;20202;-50
2022/12/27 06:02:42;;;;;;;29.03;17.77;;;;;;;3.17;100.00;100179.06;5090769;28;20199;-62
2022/12/27 06:05:09;;;;;;;28.77;16.40;;;;;;;3.14;100.00;100179.06;5091095;28;20227;-51
2022/12/27 06:07:37;;;;;;;28.00;16.53;;;;;;;3.24;100.00;100178.31;5091323;28;20570;-62
2022/12/27 06:10:09;;;;;;;25.67;15.53;;;;;;;3.23;100.00;100169.75;5090737;28;20201;-62
2022/12/27 06:12:36;;;;;;;28.30;16.67;;;;;;;3.33;100.00;100170.72;5090979;28;20235;-51
2022/12/27 06:15:03;;;;;;;29.07;16.27;;;;;;;3.29;100.00;100168.94;5090646;28;20677;-61
2022/12/27 06:17:30;;;;;;;27.10;17.37;;;;;;;3.36;100.00;100163.06;5090614;28;20209;-51
2022/12/27 06:19:59;;;;;;;30.77;18.30;;;;;;;3.34;100.00;100177.56;5090489;28;20209;-62
2022/12/27 06:22:26;;;;;;;32.60;21.23;;;;;;;3.35;100.00;100168.16;5090644;28;20196;-61
2022/12/27 06:24:52;;;;;;;34.67;20.90;;;;;;;3.44;100.00;100168.25;5090133;28;20239;-61
2022/12/27 06:27:19;;;;;;;30.97;18.90;;;;;;;3.45;100.00;100178.53;5090403;28;20195;-61
2022/12/27 06:29:46;;;;;;;32.70;19.33;;;;;;;3.51;100.00;100185.44;5090254;28;20202;-61
2022/12/27 06:32:16;;;;;;;45.63;25.10;;;;;;;3.53;100.00;100189.75;5090543;28;20199;-61
2022/12/27 06:34:43;;;;;;;37.27;22.37;;;;;;;3.41;100.00;100183.63;5090403;28;20606;-62
2022/12/27 06:37:11;;;;;;;33.40;21.37;;;;;;;3.61;100.00;100182.97;5090299;28;20200;-62
2022/12/27 06:39:38;;;;;;;35.07;20.10;;;;;;;3.76;100.00;100184.84;5090237;28;20230;-62
2022/12/27 06:42:05;;;;;;;33.03;19.60;;;;;;;3.79;100.00;100173.75;5090296;28;20585;-62
2022/12/27 06:44:32;;;;;;;33.50;19.67;;;;;;;3.85;100.00;100173.78;5089325;28;20741;-51
2022/12/27 06:46:59;;;;;;;41.17;20.17;;;;;;;3.96;100.00;100169.59;5089904;28;20204;-51
2022/12/27 06:49:26;;;;;;;32.67;21.20;;;;;;;4.06;100.00;100161.13;5090004;28;20202;-60
2022/12/27 06:51:53;;;;;;;37.73;22.00;;;;;;;4.21;100.00;100163.81;5089916;28;20199;-53
2022/12/27 06:54:21;;;;;;;29.43;19.20;;;;;;;4.24;100.00;100160.41;5089830;28;20200;-51
2022/12/27 06:56:48;;;;;;;30.10;19.63;;;;;;;4.23;100.00;100180.09;5089808;28;20196;-51
2022/12/27 06:59:15;;;;;;;40.57;24.77;;;;;;;4.28;100.00;100168.16;5085323;28;20228;-52
2022/12/27 07:01:42;;;;;;;34.23;21.50;;;;;;;4.37;100.00;100173.34;5089045;28;20227;-52
2022/12/27 07:04:09;;;;;;;29.70;18.40;;;;;;;4.36;100.00;100170.75;5088874;28;20657;-62
2022/12/27 07:06:37;;;;;;;31.83;18.60;;;;;;;4.48;100.00;100170.00;5089054;28;20231;-61
2022/12/27 07:09:05;;;;;;;29.00;17.43;;;;;;;4.57;100.00;100172.59;5088031;28;20237;-61
2022/12/27 07:11:35;;;;;;;28.10;17.50;;;;;;;4.64;100.00;100174.34;5088473;28;20212;-51
2022/12/27 07:14:02;;;;;;;27.17;18.40;;;;;;;4.75;100.00;100162.41;5088830;28;20234;-50
2022/12/27 07:16:30;;;;;;;27.03;17.10;;;;;;;4.85;100.00;100160.78;5088824;28;20218;-51
2022/12/27 07:18:59;;;;;;;34.57;16.50;;;;;;;4.82;100.00;100150.47;5088741;28;20219;-50
2022/12/27 07:21:28;;;;;;;23.50;16.70;;;;;;;5.02;100.00;100147.09;5089108;28;20225;-61
2022/12/27 07:23:56;;;;;;;36.80;21.20;;;;;;;5.11;100.00;100141.13;5086683;28;20233;-61
2022/12/27 07:26:26;;;;;;;42.27;20.70;;;;;;;5.16;100.00;100147.16;5088059;28;20239;-61
2022/12/27 07:28:55;;;;;;;40.37;21.20;;;;;;;5.20;100.00;100153.16;5096596;28;20223;-62
2022/12/27 07:31:25;;;;;;;46.20;24.73;;;;;;;5.27;100.00;100153.19;5088607;28;20222;-61
2022/12/27 07:33:52;;;;;;;45.00;23.50;;;;;;;5.32;100.00;100153.19;5088462;28;20662;-61
2022/12/27 07:36:23;;;;;;;48.93;26.90;;;;;;;5.23;100.00;100151.47;5088640;28;20198;-62
2022/12/27 07:38:50;;;;;;;46.03;27.20;;;;;;;5.34;100.00;100156.63;5089034;28;20236;-59
2022/12/27 07:41:17;;;;;;;52.70;27.53;;;;;;;5.39;100.00;100157.53;5088693;28;20769;-60
2022/12/27 07:43:45;;;;;;;48.70;27.57;;;;;;;5.45;100.00;100155.81;5088414;28;20207;-60
2022/12/27 07:46:14;;;;;;;46.03;26.60;;;;;;;5.65;100.00;100142.94;5088122;28;20226;-60
2022/12/27 07:48:42;;;;;;;47.43;26.77;;;;;;;5.67;100.00;100148.97;5088121;28;20187;-61
2022/12/27 07:51:09;;;;;;;62.90;31.50;;;;;;;5.65;100.00;100153.25;5087886;28;20284;-61
2022/12/27 07:53:36;;;;;;;64.53;38.13;;;;;;;5.72;100.00;100147.28;5087580;28;20205;-61
2022/12/27 07:56:08;;;;;;;78.97;36.93;;;;;;;5.72;100.00;100146.41;5088982;28;20723;-59
2022/12/27 07:58:39;;;;;;;71.03;38.63;;;;;;;5.63;100.00;100156.72;5092004;28;20197;-60
2022/12/27 08:01:08;;;;;;;73.17;42.17;;;;;;;5.71;100.00;100161.00;5089405;28;20199;-51
2022/12/27 08:03:36;;;;;;;72.00;40.37;;;;;;;5.85;100.00;100158.44;5088231;28;20314;-52
2022/12/27 08:06:04;;;;;;;75.77;38.17;;;;;;;5.90;100.00;100166.19;5090262;28;20230;-49
2022/12/27 08:08:37;;;;;;;59.80;34.13;;;;;;;5.87;100.00;100164.44;5090846;28;20226;-50
2022/12/27 08:11:05;;;;;;;59.20;34.47;;;;;;;6.00;100.00;100161.03;5089088;28;20711;-56
2022/12/27 08:13:31;;;;;;;61.57;34.90;;;;;;;6.06;100.00;100160.19;5090396;28;20589;-57
2022/12/27 08:15:58;;;;;;;62.53;36.33;;;;;;;6.20;100.00;100161.06;5091642;28;20179;-58
2022/12/27 08:18:25;;;;;;;70.67;40.63;;;;;;;6.30;100.00;100159.31;5092363;28;20207;-57
2022/12/27 08:20:54;;;;;;;61.63;35.13;;;;;;;6.43;100.00;100161.03;5093195;28;20652;-57
2022/12/27 08:23:21;;;;;;;58.97;32.60;;;;;;;6.44;100.00;100148.09;5092957;28;20199;-57
2022/12/27 08:25:48;;;;;;;63.60;35.00;;;;;;;6.54;100.00;100144.66;5092725;28;20219;-49
2022/12/27 08:28:16;;;;;;;60.70;32.97;;;;;;;6.69;100.00;100148.03;5093079;28;20203;-49
2022/12/27 08:30:46;;;;;;;60.23;35.33;;;;;;;6.84;100.00;100143.72;5092733;28;20236;-50
2022/12/27 08:33:13;;;;;;;61.13;36.03;;;;;;;6.93;100.00;100150.53;5092641;28;20235;-49
2022/12/27 08:35:42;;;;;;;77.73;39.97;;;;;;;6.95;100.00;100128.19;5091802;28;20192;-49
2022/12/27 08:38:10;;;;;;;65.07;39.60;;;;;;;7.06;100.00;100134.16;5092097;28;20197;-50
2022/12/27 08:40:40;;;;;;;63.33;36.53;;;;;;;7.16;100.00;100138.41;5091806;28;20237;-48
2022/12/27 08:43:13;;;;;;;65.70;36.23;;;;;;;7.22;100.00;100140.94;5092407;28;20195;-51
2022/12/27 08:45:40;;;;;;;70.87;37.03;;;;;;;7.29;100.00;100134.88;5092012;28;20630;-50
2022/12/27 08:48:07;;;;;;;64.67;37.23;;;;;;;7.39;100.00;100122.78;5088372;28;20203;-57
2022/12/27 08:50:34;;;;;;;78.43;45.10;;;;;;;7.45;100.00;100124.47;5091149;28;20198;-57
2022/12/27 08:53:04;;;;;;;73.40;42.47;;;;;;;7.45;100.00;100114.97;5091496;28;20195;-57
2022/12/27 08:55:33;;;;;;;85.70;48.37;;;;;;;7.48;100.00;100114.09;5091040;28;20187;-57
2022/12/27 08:58:01;;;;;;;69.40;43.57;;;;;;;7.64;100.00;100113.13;5090922;28;20568;-57
2022/12/27 09:00:29;;;;;;;63.50;37.23;;;;;;;7.63;100.00;100112.28;5090727;28;20202;-58
2022/12/27 09:02:56;;;;;;;57.37;34.13;;;;;;;7.76;100.00;100115.63;5090956;28;20192;-57
2022/12/27 09:05:24;;;;;;;99.67;58.30;;;;;;;7.82;100.00;100106.97;5090810;28;20226;-58
2022/12/27 09:07:51;;;;;;;68.57;44.33;;;;;;;7.94;100.00;100105.13;5090005;28;20659;-57
2022/12/27 09:10:19;;;;;;;56.87;36.43;;;;;;;7.90;100.00;100082.75;5090560;28;20701;-57
2022/12/27 09:12:47;;;;;;;50.67;27.50;;;;;;;8.11;100.00;100099.81;5087425;28;20196;-52
2022/12/27 09:15:14;;;;;;;33.70;21.70;;;;;;;8.20;100.00;100096.28;5091127;28;20203;-52
2022/12/27 09:17:42;;;;;;;27.53;18.00;;;;;;;8.23;100.00;100096.25;5090510;28;21543;-60
2022/12/27 09:20:11;;;;;;;26.00;16.63;;;;;;;8.34;100.00;100081.53;5091725;28;20667;-53
2022/12/27 09:22:39;;;;;;;25.33;14.60;;;;;;;8.48;100.00;100094.28;5084193;28;20687;-59
2022/12/27 09:25:07;;;;;;;23.83;15.23;;;;;;;8.60;100.00;100099.31;5071140;28;20220;-60
2022/12/27 09:27:34;;;;;;;22.90;15.03;;;;;;;8.69;100.00;100081.94;5090243;28;20691;-60
2022/12/27 09:30:03;;;;;;;26.60;16.33;;;;;;;8.83;100.00;100070.56;5087937;28;20278;-59
2022/12/27 09:32:31;;;;;;;24.27;16.07;;;;;;;8.93;100.00;100061.81;5089125;28;20206;-60
2022/12/27 09:34:58;;;;;;;23.90;16.63;;;;;;;8.97;100.00;100060.91;5090718;28;20219;-59
2022/12/27 09:37:25;;;;;;;31.70;16.90;;;;;;;9.08;100.00;100054.69;5091395;28;20207;-49
2022/12/27 09:39:52;;;;;;;29.97;16.97;;;;;;;9.24;100.00;100057.94;5091459;28;20604;-51
2022/12/27 09:42:27;;;;;;;36.73;19.97;;;;;;;9.24;100.00;100033.78;5091930;28;20195;-51
2022/12/27 09:44:59;;;;;;;43.43;26.30;;;;;;;9.48;100.00;100048.91;5091379;28;20187;-50
2022/12/27 09:47:33;;;;;;;37.20;23.23;;;;;;;9.56;100.00;100048.81;5090982;28;20219;-60
2022/12/27 09:50:04;;;;;;;53.73;29.03;;;;;;;9.70;100.00;100041.66;5091017;28;20206;-50
2022/12/27 09:52:37;;;;;;;49.90;26.43;;;;;;;9.78;100.00;100034.59;5091335;28;20195;-51
2022/12/27 09:55:08;;;;;;;34.97;21.50;;;;;;;9.88;100.00;100030.97;5091532;28;20226;-50
2022/12/27 09:57:37;;;;;;;33.73;21.13;;;;;;;9.96;100.00;100033.41;5091178;28;20276;-50
2022/12/27 10:00:13;;;;;;;30.43;19.27;;;;;;;10.00;100.00;100040.25;5090971;28;20207;-51
2022/12/27 10:02:43;;;;;;;33.07;21.37;;;;;;;10.05;99.66;100028.91;5091186;28;20647;-51
2022/12/27 10:05:17;;;;;;;29.23;19.40;;;;;;;10.11;100.00;100015.84;5091161;28;20321;-50
2022/12/27 10:07:56;;;;;;;35.80;20.03;;;;;;;10.17;99.86;100028.69;5090863;28;20574;-50
2022/12/27 10:10:31;;;;;;;29.53;18.87;;;;;;;10.17;99.91;100004.47;5090768;28;20195;-59
2022/12/27 10:13:23;;;;;;;30.37;18.07;;;;;;;10.39;100.00;100017.91;5090339;28;20190;-59
2022/12/27 10:15:55;;;;;;;26.43;16.57;;;;;;;10.53;99.75;100010.72;5090766;28;20201;-60
2022/12/27 10:18:36;;;;;;;22.60;16.63;;;;;;;10.66;99.69;100019.09;5090759;28;20205;-51
2022/12/27 10:21:17;;;;;;;27.67;15.73;;;;;;;10.74;99.50;100009.41;5089572;28;20199;-50
2022/12/27 10:23:50;;;;;;;20.60;15.57;;;;;;;10.81;98.69;100005.81;5090727;28;20675;-50
2022/12/27 10:26:18;;;;;;;24.13;16.37;;;;;;;10.93;98.28;100002.06;5090771;28;20219;-50
2022/12/27 10:28:47;;;;;;;25.00;16.93;;;;;;;11.19;96.74;99997.97;5090422;28;20207;-51
2022/12/27 10:31:17;;;;;;;29.83;17.07;;;;;;;11.16;96.51;99981.63;5090668;28;20222;-51
2022/12/27 10:33:47;;;;;;;23.13;17.20;;;;;;;11.50;94.47;99990.31;5090704;28;20229;-52
2022/12/27 10:36:16;;;;;;;25.77;16.93;;;;;;;11.46;94.56;99993.00;5090436;28;20198;-52
2022/12/27 10:38:43;;;;;;;25.73;16.63;;;;;;;11.42;95.08;99988.75;5088815;28;20199;-51
2022/12/27 10:41:26;;;;;;;32.37;19.67;;;;;;;11.51;97.55;99986.78;5089760;28;20223;-54
2022/12/27 10:43:55;;;;;;;30.70;18.57;;;;;;;11.55;96.19;99974.56;5090117;28;20203;-53
2022/12/27 10:46:23;;;;;;;35.53;21.27;;;;;;;11.61;95.22;99970.09;5089940;28;20667;-52
2022/12/27 10:48:57;;;;;;;40.03;20.93;;;;;;;11.72;94.81;99972.41;5090111;28;20218;-60
2022/12/27 10:51:25;;;;;;;29.40;20.63;;;;;;;11.78;94.81;99961.88;5090250;28;20671;-61
2022/12/27 10:53:59;;;;;;;38.90;23.43;;;;;;;11.93;94.02;99951.06;5090032;28;20191;-61
2022/12/27 10:56:28;;;;;;;46.67;25.93;;;;;;;12.10;93.20;99958.38;5089868;28;20202;-53
2022/12/27 10:59:07;;;;;;;44.40;25.53;;;;;;;12.17;93.24;99948.69;5089804;28;20209;-61
2022/12/27 11:01:34;;;;;;;36.77;24.03;;;;;;;12.27;92.51;99939.69;5090382;28;20195;-62
2022/12/27 11:04:14;;;;;;;49.60;27.90;;;;;;;12.31;92.30;99938.69;5089898;28;20687;-61
2022/12/27 11:06:42;;;;;;;44.93;24.23;;;;;;;12.43;91.22;99927.06;5089671;28;20709;-53
2022/12/27 11:09:25;;;;;;;49.10;28.47;;;;;;;12.53;91.82;99939.78;5089708;28;20237;-53
2022/12/27 11:11:52;;;;;;;41.47;25.07;;;;;;;12.68;91.35;99935.84;5089490;28;20217;-53
2022/12/27 11:14:20;;;;;;;41.23;24.10;;;;;;;12.82;91.39;99928.47;5090101;28;20667;-62
2022/12/27 11:16:48;;;;;;;36.70;22.20;;;;;;;13.04;89.67;99929.50;5089613;28;20198;-62
2022/12/27 11:19:24;;;;;;;33.87;21.60;;;;;;;13.15;88.61;99937.00;5089569;28;20207;-61
2022/12/27 11:21:53;;;;;;;32.57;21.37;;;;;;;13.26;88.16;99939.25;5089913;28;20226;-61
2022/12/27 11:24:22;;;;;;;35.83;21.27;;;;;;;13.36;87.33;99940.66;5083450;28;20214;-62
2022/12/27 11:26:57;;;;;;;28.77;22.13;;;;;;;13.38;87.51;99931.03;5086027;28;20215;-61
2022/12/27 11:29:25;;;;;;;33.60;22.33;;;;;;;13.29;87.70;99923.53;5085194;28;20202;-61
2022/12/27 11:31:54;;;;;;;41.07;22.90;;;;;;;13.25;88.11;99909.72;5084890;28;20299;-54
2022/12/27 11:34:28;;;;;;;42.50;23.30;;;;;;;13.30;88.12;99914.81;5087881;28;20192;-54
2022/12/27 11:37:02;;;;;;;43.53;22.80;;;;;;;13.35;88.48;99915.47;5086696;28;20689;-54
2022/12/27 11:39:44;;;;;;;30.17;21.07;;;;;;;13.35;88.53;99915.47;5086538;28;20230;-54
2022/12/27 11:42:25;;;;;;;227.77;96.83;;;;;;;13.39;88.65;99901.44;5087047;28;20286;-53
2022/12/27 11:45:03;;;;;;;114.07;49.07;;;;;;;13.45;89.09;99890.78;5084436;28;20199;-53
2022/12/27 11:47:36;;;;;;;58.73;27.33;;;;;;;13.65;88.83;99901.41;5085714;28;20211;-53
2022/12/27 11:50:19;;;;;;;38.57;23.17;;;;;;;13.76;88.46;99901.88;5088415;28;20253;-54
2022/12/27 11:53:00;;;;;;;52.40;27.03;;;;;;;14.05;87.97;99898.19;5088569;28;20199;-62
2022/12/27 11:56:09;;;;;;;71.20;35.27;;;;;;;14.32;87.75;99903.31;5089368;28;20198;-62
2022/12/27 11:58:53;;;;;;;51.37;25.53;;;;;;;14.53;86.81;99908.59;5088099;28;20281;-61
2022/12/27 12:01:48;;;;;;;55.13;29.63;;;;;;;14.69;86.44;99905.38;5090600;28;20709;-61
2022/12/27 12:04:56;;;;;;;59.23;30.30;;;;;;;14.76;86.47;99904.22;5089515;28;20691;-54
2022/12/27 12:07:40;;;;;;;34.27;17.40;;;;;;;14.81;86.20;99903.13;5089105;28;20215;-55
2022/12/27 12:10:20;;;;;;;29.53;16.13;;;;;;;14.82;85.71;99893.53;5089230;28;20235;-54
2022/12/27 12:13:11;;;;;;;18.10;13.10;;;;;;;14.84;86.25;99902.16;5088964;28;20199;-54
2022/12/27 12:15:54;;;;;;;22.97;11.83;;;;;;;14.89;85.89;99900.22;5079358;28;20202;-54
2022/12/27 12:18:39;;;;;;;21.13;12.90;;;;;;;14.86;85.98;99875.06;5082587;28;20215;-55
2022/12/27 12:21:24;;;;;;;23.80;12.10;;;;;;;14.93;85.78;99886.09;5085744;28;20199;-54
2022/12/27 12:24:22;;;;;;;23.60;12.20;;;;;;;15.00;85.77;99892.81;5086867;28;20249;-54
2022/12/27 12:27:02;;;;;;;18.17;12.03;;;;;;;15.06;85.80;99900.38;5078985;28;20215;-54
2022/12/27 12:29:47;;;;;;;18.33;12.07;;;;;;;15.05;85.12;99890.81;5086472;28;20654;-56
2022/12/27 12:32:34;;;;;;;15.03;10.93;;;;;;;15.07;85.31;99899.47;5086995;28;20306;-61
2022/12/27 12:35:18;;;;;;;18.67;13.20;;;;;;;15.12;85.15;99897.50;5086334;28;20667;-61
2022/12/27 12:38:17;;;;;;;21.03;15.00;;;;;;;15.27;85.25;99906.47;5087599;28;20571;-61
2022/12/27 12:41:11;;;;;;;16.97;11.93;;;;;;;15.34;85.26;99907.09;5083775;28;20620;-54
2022/12/27 12:43:58;;;;;;;17.10;12.47;;;;;;;15.35;85.36;99908.78;5085255;28;20252;-55
2022/12/27 12:46:33;;;;;;;22.53;13.03;;;;;;;15.36;85.50;99900.84;5089692;28;20226;-55
2022/12/27 12:49:26;;;;;;;21.87;13.17;;;;;;;15.43;85.25;99923.25;5088658;28;20199;-55
2022/12/27 12:52:17;;;;;;;22.37;13.13;;;;;;;15.39;84.05;99889.41;5089905;28;20286;-55
2022/12/27 12:55:11;;;;;;;18.47;12.50;;;;;;;15.63;84.04;99914.56;5089026;28;20187;-55
2022/12/27 12:57:49;;;;;;;18.27;11.70;;;;;;;15.71;84.00;99915.09;5088425;28;20187;-54
2022/12/27 13:00:29;;;;;;;22.93;13.23;;;;;;;15.78;84.29;99919.16;5091001;28;20195;-54
2022/12/27 13:03:22;;;;;;;26.97;15.63;;;;;;;15.87;83.89;99918.75;5090612;28;20199;-55
2022/12/27 13:05:53;;;;;;;19.63;12.77;;;;;;;15.94;83.39;99921.94;5088671;28;20573;-55
2022/12/27 13:08:30;;;;;;;22.17;11.73;;;;;;;15.93;83.35;99917.59;5088112;28;20233;-55
2022/12/27 13:11:10;;;;;;;19.00;10.07;;;;;;;16.02;82.83;99921.59;5089918;28;20218;-54
2022/12/27 13:13:50;;;;;;;11.13;7.97;;;;;;;16.04;82.02;99910.13;5090282;28;20193;-60
2022/12/27 13:16:30;;;;;;;10.83;7.30;;;;;;;16.13;81.66;99922.84;5091662;28;20191;-60